createdAt,value
2022-11-27T00:01:41.921Z,1.04
2022-11-27T00:04:09.169Z,0.85
2022-11-27T00:06:36.038Z,0.91
2022-11-27T00:09:05.879Z,0.72
2022-11-27T00:11:32.773Z,0.74
2022-11-27T00:14:00.117Z,0.90
2022-11-27T00:16:27.369Z,0.87
2022-11-27T00:18:53.885Z,0.79
2022-11-27T00:21:24.920Z,0.48
2022-11-27T00:23:52.152Z,0.68
2022-11-27T00:26:19.061Z,0.74
2022-11-27T00:28:45.581Z,0.82
2022-11-27T00:31:18.440Z,0.78
2022-11-27T00:33:45.505Z,0.66
2022-11-27T00:36:12.963Z,0.63
2022-11-27T00:38:39.816Z,0.77
2022-11-27T00:41:10.422Z,0.75
2022-11-27T00:43:44.006Z,0.78
2022-11-27T00:46:12.529Z,0.63
2022-11-27T00:48:38.960Z,0.67
2022-11-27T00:51:07.835Z,0.62
2022-11-27T00:53:34.572Z,0.73
2022-11-27T00:56:01.020Z,0.80
2022-11-27T00:58:27.880Z,0.92
2022-11-27T01:00:55.401Z,1.06
2022-11-27T01:03:21.985Z,1.44
2022-11-27T01:05:48.418Z,1.07
2022-11-27T01:08:14.872Z,1.05
2022-11-27T01:10:51.960Z,0.85
2022-11-27T01:13:25.006Z,0.78
2022-11-27T01:16:00.599Z,0.95
2022-11-27T01:18:27.309Z,1.01
2022-11-27T01:20:53.912Z,1.04
2022-11-27T01:23:20.956Z,0.82
2022-11-27T01:25:48.314Z,0.73
2022-11-27T01:28:14.955Z,0.74
2022-11-27T01:30:41.456Z,0.95
2022-11-27T01:33:07.887Z,0.71
2022-11-27T01:35:34.328Z,0.97
2022-11-27T01:38:00.773Z,1.13
2022-11-27T01:40:27.218Z,1.14
2022-11-27T01:42:53.699Z,1.04
2022-11-27T01:45:21.059Z,1.20
2022-11-27T01:47:56.134Z,1.31
2022-11-27T01:50:25.217Z,1.39
2022-11-27T01:52:54.372Z,1.55
2022-11-27T01:55:27.777Z,1.60
2022-11-27T01:58:11.805Z,1.49
2022-11-27T02:00:38.743Z,1.89
2022-11-27T02:03:05.614Z,1.97
2022-11-27T02:05:33.353Z,2.00
2022-11-27T02:08:02.985Z,1.77
2022-11-27T02:10:38.149Z,1.82
2022-11-27T02:13:11.652Z,1.92
2022-11-27T02:15:48.524Z,1.83
2022-11-27T02:18:28.761Z,1.95
2022-11-27T02:21:04.570Z,2.04
2022-11-27T02:23:49.901Z,2.12
2022-11-27T02:26:22.472Z,2.37
2022-11-27T02:29:07.156Z,2.10
2022-11-27T02:31:56.940Z,1.85
2022-11-27T02:34:42.452Z,1.59
2022-11-27T02:37:19.058Z,1.72
2022-11-27T02:40:04.315Z,1.79
2022-11-27T02:42:33.316Z,1.84
2022-11-27T02:45:09.581Z,1.68
2022-11-27T02:47:36.735Z,1.78
2022-11-27T02:50:03.749Z,1.80
2022-11-27T02:52:31.542Z,2.17
2022-11-27T02:55:00.555Z,1.98
2022-11-27T02:57:27.720Z,1.76
2022-11-27T02:59:55.976Z,1.59
2022-11-27T03:02:34.748Z,1.72
2022-11-27T03:05:02.637Z,1.65
2022-11-27T03:07:44.005Z,1.63
2022-11-27T03:10:19.183Z,1.61
2022-11-27T03:12:46.987Z,1.54
2022-11-27T03:15:13.557Z,1.73
2022-11-27T03:17:43.138Z,1.42
2022-11-27T03:20:09.621Z,1.52
2022-11-27T03:22:36.081Z,1.66
2022-11-27T03:25:02.621Z,1.58
2022-11-27T03:27:32.431Z,1.71
2022-11-27T03:30:00.698Z,1.59
2022-11-27T03:32:28.510Z,1.52
2022-11-27T03:34:55.389Z,1.41
2022-11-27T03:37:22.294Z,1.50
2022-11-27T03:39:48.864Z,1.50
2022-11-27T03:42:34.093Z,1.52
2022-11-27T03:45:15.813Z,1.27
2022-11-27T03:48:11.819Z,1.26
2022-11-27T03:50:53.509Z,1.16
2022-11-27T03:53:26.109Z,1.15
2022-11-27T03:56:05.470Z,1.21
2022-11-27T03:58:34.999Z,1.03
2022-11-27T04:01:03.084Z,1.12
2022-11-27T04:03:30.298Z,1.15
2022-11-27T04:05:57.137Z,1.11
2022-11-27T04:08:24.963Z,1.13
2022-11-27T04:10:51.430Z,1.09
2022-11-27T04:13:17.897Z,1.06
2022-11-27T04:15:44.342Z,1.03
2022-11-27T04:18:11.082Z,1.00
2022-11-27T04:20:37.534Z,0.82
2022-11-27T04:23:04.075Z,0.73
2022-11-27T04:25:30.498Z,0.88
2022-11-27T04:27:56.945Z,0.81
2022-11-27T04:30:23.514Z,0.63
2022-11-27T04:32:50.012Z,0.58
2022-11-27T04:35:16.561Z,0.59
2022-11-27T04:37:43.029Z,0.66
2022-11-27T04:40:09.759Z,0.68
2022-11-27T04:42:36.342Z,0.73
2022-11-27T04:45:03.216Z,0.72
2022-11-27T04:47:30.177Z,0.79
2022-11-27T04:49:56.643Z,0.64
2022-11-27T04:52:23.047Z,0.85
2022-11-27T04:54:49.513Z,0.76
2022-11-27T04:57:16.049Z,0.61
2022-11-27T04:59:42.488Z,0.61
2022-11-27T05:02:08.984Z,0.62
2022-11-27T05:04:35.508Z,0.62
2022-11-27T05:07:01.925Z,0.39
2022-11-27T05:09:28.408Z,0.37
2022-11-27T05:11:55.001Z,0.34
2022-11-27T05:14:24.088Z,0.32
2022-11-27T05:16:52.094Z,0.25
2022-11-27T05:19:19.626Z,0.22
2022-11-27T05:21:46.568Z,0.21
2022-11-27T05:24:13.533Z,0.24
2022-11-27T05:26:40.245Z,0.34
2022-11-27T05:29:07.360Z,0.57
2022-11-27T05:31:33.903Z,0.53
2022-11-27T05:34:00.465Z,0.42
2022-11-27T05:36:26.957Z,0.52
2022-11-27T05:38:53.478Z,0.49
2022-11-27T05:41:20.289Z,0.35
2022-11-27T05:43:46.807Z,0.19
2022-11-27T05:46:14.485Z,0.40
2022-11-27T05:48:41.025Z,0.30
2022-11-27T05:51:07.637Z,0.11
2022-11-27T05:53:34.170Z,-0.03
2022-11-27T05:56:08.280Z,-0.18
2022-11-27T05:58:35.407Z,-0.20
2022-11-27T06:01:02.131Z,-0.23
2022-11-27T06:03:28.837Z,-0.17
2022-11-27T06:05:55.339Z,-0.24
2022-11-27T06:08:21.848Z,-0.29
2022-11-27T06:10:48.668Z,-0.27
2022-11-27T06:13:15.487Z,-0.17
2022-11-27T06:15:42.340Z,-0.28
2022-11-27T06:18:10.684Z,-0.11
2022-11-27T06:20:42.251Z,-0.10
2022-11-27T06:23:10.282Z,-0.08
2022-11-27T06:25:36.744Z,0.08
2022-11-27T06:28:03.263Z,-0.02
2022-11-27T06:30:29.671Z,-0.15
2022-11-27T06:32:56.093Z,0.05
2022-11-27T06:35:22.857Z,-0.05
2022-11-27T06:37:49.294Z,-0.12
2022-11-27T06:40:15.763Z,-0.13
2022-11-27T06:42:42.210Z,0.06
2022-11-27T06:45:08.923Z,0.23
2022-11-27T06:47:35.337Z,0.33
2022-11-27T06:50:01.806Z,0.39
2022-11-27T06:52:28.272Z,0.29
2022-11-27T06:54:54.699Z,0.79
2022-11-27T06:57:21.143Z,0.73
2022-11-27T06:59:47.672Z,0.65
2022-11-27T07:02:15.108Z,0.77
2022-11-27T07:04:42.054Z,1.03
2022-11-27T07:07:08.941Z,1.74
2022-11-27T07:09:35.388Z,2.65
2022-11-27T07:12:03.729Z,3.05
2022-11-27T07:14:30.237Z,3.25
2022-11-27T07:16:56.717Z,3.48
2022-11-27T07:19:23.184Z,3.88
2022-11-27T07:21:49.672Z,4.46
2022-11-27T07:24:16.163Z,4.87
2022-11-27T07:26:42.704Z,5.37
2022-11-27T07:29:09.165Z,5.69
2022-11-27T07:31:35.738Z,6.03
2022-11-27T07:34:02.203Z,6.01
2022-11-27T07:36:29.916Z,5.95
2022-11-27T07:38:56.546Z,6.12
2022-11-27T07:41:23.041Z,6.23
2022-11-27T07:43:49.456Z,6.72
2022-11-27T07:46:25.622Z,6.74
2022-11-27T07:48:52.077Z,6.61
2022-11-27T07:51:20.238Z,6.22
2022-11-27T07:53:46.748Z,6.30
2022-11-27T07:56:14.204Z,7.02
2022-11-27T07:58:40.696Z,8.75
2022-11-27T08:01:08.631Z,8.65
2022-11-27T08:03:35.317Z,7.82
2022-11-27T08:06:01.780Z,7.35
2022-11-27T08:08:28.205Z,7.38
2022-11-27T08:10:54.641Z,7.78
2022-11-27T08:13:21.089Z,7.34
2022-11-27T08:15:48.191Z,7.13
2022-11-27T08:18:14.649Z,7.63
2022-11-27T08:20:41.137Z,7.43
2022-11-27T08:23:07.580Z,7.41
2022-11-27T08:25:34.046Z,7.45
2022-11-27T08:28:00.628Z,7.92
2022-11-27T08:30:27.337Z,8.05
2022-11-27T08:32:53.789Z,7.84
2022-11-27T08:35:20.292Z,7.30
2022-11-27T08:37:46.778Z,8.35
2022-11-27T08:40:13.394Z,8.22
2022-11-27T08:42:39.854Z,8.50
2022-11-27T08:45:06.608Z,8.50
2022-11-27T08:47:33.135Z,8.84
2022-11-27T08:49:59.545Z,8.02
2022-11-27T08:52:26.453Z,8.14
2022-11-27T08:54:57.331Z,7.78
2022-11-27T08:57:24.451Z,8.94
2022-11-27T08:59:51.012Z,8.15
2022-11-27T09:02:17.569Z,9.32
2022-11-27T09:04:44.190Z,8.92
2022-11-27T09:07:14.286Z,8.89
2022-11-27T09:09:41.084Z,10.12
2022-11-27T09:12:07.726Z,10.68
2022-11-27T09:14:34.220Z,9.91
2022-11-27T09:17:00.763Z,10.30
2022-11-27T09:19:27.337Z,10.10
2022-11-27T09:21:53.846Z,11.45
2022-11-27T09:24:20.374Z,9.86
2022-11-27T09:26:46.832Z,10.39
2022-11-27T09:29:13.368Z,9.83
2022-11-27T09:31:39.963Z,11.06
2022-11-27T09:34:06.528Z,10.08
2022-11-27T09:36:32.947Z,10.76
2022-11-27T09:39:00.204Z,9.80
2022-11-27T09:41:46.534Z,10.87
2022-11-27T09:44:25.054Z,10.59
2022-11-27T09:46:52.339Z,11.29
2022-11-27T09:49:26.787Z,11.19
2022-11-27T09:52:16.628Z,11.31
2022-11-27T09:54:45.698Z,11.60
2022-11-27T09:57:16.449Z,11.02
2022-11-27T09:59:50.716Z,11.58
2022-11-27T10:02:18.910Z,10.54
2022-11-27T10:05:12.348Z,12.34
2022-11-27T10:07:38.371Z,12.02
2022-11-27T10:10:20.956Z,10.94
2022-11-27T10:13:10.585Z,11.43
2022-11-27T10:15:49.234Z,11.68
2022-11-27T10:18:39.012Z,12.33
2022-11-27T10:21:24.181Z,11.53
2022-11-27T10:24:03.451Z,12.44
2022-11-27T10:26:37.050Z,13.01
2022-11-27T10:29:06.729Z,12.74
2022-11-27T10:31:36.548Z,12.41
2022-11-27T10:34:05.666Z,12.45
2022-11-27T10:36:32.189Z,12.64
2022-11-27T10:39:00.034Z,11.87
2022-11-27T10:41:52.798Z,12.94
2022-11-27T10:44:25.211Z,12.17
2022-11-27T10:46:53.348Z,13.08
2022-11-27T10:49:19.777Z,13.32
2022-11-27T10:51:46.229Z,13.93
2022-11-27T10:54:21.672Z,13.50
2022-11-27T10:57:06.989Z,14.51
2022-11-27T10:59:35.761Z,13.78
2022-11-27T11:02:05.456Z,12.96
2022-11-27T11:04:39.725Z,12.43
2022-11-27T11:07:23.251Z,12.90
2022-11-27T11:09:49.826Z,13.45
2022-11-27T11:12:21.200Z,13.04
2022-11-27T11:14:55.073Z,13.32
2022-11-27T11:17:26.603Z,12.90
2022-11-27T11:19:53.561Z,13.04
2022-11-27T11:22:20.249Z,12.61
2022-11-27T11:24:48.073Z,13.40
2022-11-27T11:27:14.479Z,12.89
2022-11-27T11:29:42.945Z,12.76
2022-11-27T11:32:10.870Z,12.49
2022-11-27T11:34:42.760Z,12.50
2022-11-27T11:37:20.256Z,12.65
2022-11-27T11:39:49.089Z,13.34
2022-11-27T11:42:20.260Z,13.10
2022-11-27T11:44:51.353Z,13.34
2022-11-27T11:47:18.861Z,13.02
2022-11-27T11:49:46.099Z,12.32
2022-11-27T11:52:22.118Z,12.61
2022-11-27T11:55:14.972Z,13.30
2022-11-27T11:57:55.819Z,13.11
2022-11-27T12:00:28.277Z,12.97
2022-11-27T12:03:15.014Z,12.70
2022-11-27T12:05:41.694Z,12.78
2022-11-27T12:08:14.347Z,12.44
2022-11-27T12:10:48.853Z,13.14
2022-11-27T12:13:22.139Z,12.73
2022-11-27T12:16:15.285Z,13.33
2022-11-27T12:18:48.072Z,13.22
2022-11-27T12:21:15.890Z,13.23
2022-11-27T12:24:05.454Z,13.05
2022-11-27T12:26:47.199Z,12.80
2022-11-27T12:29:16.855Z,12.74
2022-11-27T12:31:43.359Z,13.30
2022-11-27T12:34:23.172Z,13.55
2022-11-27T12:37:08.831Z,13.03
2022-11-27T12:39:53.939Z,14.34
2022-11-27T12:42:49.966Z,13.62
2022-11-27T12:45:19.257Z,12.72
2022-11-27T12:48:04.541Z,13.55
2022-11-27T12:50:36.904Z,13.47
2022-11-27T12:53:16.786Z,13.69
2022-11-27T12:55:48.361Z,13.50
2022-11-27T12:58:28.337Z,13.75
2022-11-27T13:01:03.340Z,13.34
2022-11-27T13:03:52.993Z,12.88
2022-11-27T13:06:22.136Z,12.63
2022-11-27T13:08:53.344Z,12.90
2022-11-27T13:11:23.813Z,13.83
2022-11-27T13:13:53.969Z,12.94
2022-11-27T13:16:30.242Z,12.47
2022-11-27T13:19:01.245Z,13.52
2022-11-27T13:21:30.068Z,12.87
2022-11-27T13:24:00.393Z,12.33
2022-11-27T13:26:48.969Z,12.20
2022-11-27T13:29:26.487Z,12.53
2022-11-27T13:31:56.181Z,12.61
2022-11-27T13:34:24.443Z,12.37
2022-11-27T13:36:58.626Z,12.11
2022-11-27T13:39:30.055Z,12.74
2022-11-27T13:42:01.762Z,12.27
2022-11-27T13:44:29.023Z,12.34
2022-11-27T13:47:00.219Z,12.59
2022-11-27T13:49:34.604Z,11.87
2022-11-27T13:52:12.268Z,11.93
2022-11-27T13:54:39.137Z,12.03
2022-11-27T13:57:15.873Z,12.15
2022-11-27T13:59:59.398Z,12.09
2022-11-27T14:02:26.628Z,12.26
2022-11-27T14:04:56.390Z,11.53
2022-11-27T14:07:24.337Z,12.16
2022-11-27T14:09:56.224Z,11.04
2022-11-27T14:12:22.683Z,10.91
2022-11-27T14:15:08.096Z,10.94
2022-11-27T14:17:57.296Z,10.54
2022-11-27T14:20:26.478Z,10.22
2022-11-27T14:23:11.881Z,9.47
2022-11-27T14:25:39.438Z,9.08
2022-11-27T14:28:24.816Z,8.29
2022-11-27T14:30:52.894Z,8.28
2022-11-27T14:33:22.224Z,8.03
2022-11-27T14:35:49.909Z,7.58
2022-11-27T14:38:16.430Z,7.77
2022-11-27T14:40:42.944Z,6.92
2022-11-27T14:43:10.646Z,7.10
2022-11-27T14:45:37.802Z,7.36
2022-11-27T14:48:04.512Z,6.94
2022-11-27T14:50:30.981Z,6.22
2022-11-27T14:52:58.377Z,6.10
2022-11-27T14:55:27.918Z,5.94
2022-11-27T14:57:58.183Z,5.76
2022-11-27T15:00:30.066Z,6.37
2022-11-27T15:03:06.927Z,6.38
2022-11-27T15:05:34.884Z,5.93
2022-11-27T15:08:01.977Z,5.79
2022-11-27T15:10:34.525Z,5.85
2022-11-27T15:13:02.323Z,5.74
2022-11-27T15:15:30.100Z,5.62
2022-11-27T15:17:58.825Z,5.47
2022-11-27T15:20:35.056Z,5.38
2022-11-27T15:23:02.163Z,5.34
2022-11-27T15:25:39.581Z,5.38
2022-11-27T15:28:24.833Z,5.18
2022-11-27T15:30:51.461Z,5.19
2022-11-27T15:33:44.406Z,5.10
2022-11-27T15:36:21.166Z,5.07
2022-11-27T15:38:50.771Z,4.88
2022-11-27T15:41:23.383Z,4.67
2022-11-27T15:43:50.016Z,4.69
2022-11-27T15:46:19.793Z,4.85
2022-11-27T15:48:46.346Z,4.69
2022-11-27T15:51:12.816Z,4.57
2022-11-27T15:53:39.414Z,4.55
2022-11-27T15:56:06.432Z,4.61
2022-11-27T15:58:32.848Z,4.57
2022-11-27T16:00:59.356Z,4.47
2022-11-27T16:03:25.795Z,4.40
2022-11-27T16:05:52.273Z,4.37
2022-11-27T16:08:18.834Z,4.32
2022-11-27T16:10:45.248Z,4.34
2022-11-27T16:13:11.709Z,4.26
2022-11-27T16:15:38.252Z,4.13
2022-11-27T16:18:07.014Z,4.18
2022-11-27T16:20:33.473Z,3.99
2022-11-27T16:22:59.929Z,3.86
2022-11-27T16:25:26.639Z,3.80
2022-11-27T16:27:56.685Z,3.70
2022-11-27T16:30:26.134Z,3.61
2022-11-27T16:32:53.369Z,3.47
2022-11-27T16:35:20.433Z,3.38
2022-11-27T16:37:46.970Z,3.37
2022-11-27T16:40:13.803Z,3.32
2022-11-27T16:42:40.480Z,3.33
2022-11-27T16:45:07.649Z,3.14
2022-11-27T16:47:34.497Z,2.90
2022-11-27T16:50:01.271Z,3.20
2022-11-27T16:52:28.586Z,3.13
2022-11-27T16:54:56.068Z,3.12
2022-11-27T16:57:23.310Z,3.16
2022-11-27T16:59:51.013Z,2.95
2022-11-27T17:02:19.117Z,3.13
2022-11-27T17:04:45.645Z,3.08
2022-11-27T17:07:12.229Z,2.85
2022-11-27T17:09:39.096Z,2.81
2022-11-27T17:12:05.688Z,2.84
2022-11-27T17:14:32.849Z,2.75
2022-11-27T17:17:00.184Z,2.72
2022-11-27T17:19:29.966Z,2.57
2022-11-27T17:21:56.584Z,2.78
2022-11-27T17:24:25.738Z,2.74
2022-11-27T17:26:55.230Z,2.73
2022-11-27T17:29:32.216Z,2.75
2022-11-27T17:32:01.126Z,2.56
2022-11-27T17:34:27.571Z,2.52
2022-11-27T17:36:57.417Z,2.48
2022-11-27T17:39:23.965Z,2.57
2022-11-27T17:41:50.473Z,2.41
2022-11-27T17:44:16.981Z,2.46
2022-11-27T17:46:48.073Z,2.51
2022-11-27T17:49:14.635Z,2.52
2022-11-27T17:51:41.433Z,2.43
2022-11-27T17:54:10.751Z,2.53
2022-11-27T17:56:38.415Z,2.57
2022-11-27T17:59:05.019Z,2.52
2022-11-27T18:01:33.652Z,2.46
2022-11-27T18:04:03.470Z,2.37
2022-11-27T18:06:31.113Z,2.33
2022-11-27T18:08:58.620Z,2.24
2022-11-27T18:11:27.802Z,2.16
2022-11-27T18:13:56.324Z,2.30
2022-11-27T18:16:30.584Z,2.10
2022-11-27T18:18:57.761Z,2.11
2022-11-27T18:21:26.969Z,2.08
2022-11-27T18:24:21.980Z,2.11
2022-11-27T18:29:27.439Z,1.75
2022-11-27T18:31:54.007Z,1.80
2022-11-27T18:34:20.488Z,1.89
2022-11-27T18:36:47.956Z,1.82
2022-11-27T18:39:14.687Z,1.81
2022-11-27T18:41:41.200Z,1.67
2022-11-27T18:44:08.276Z,1.68
2022-11-27T18:46:34.916Z,1.86
2022-11-27T18:49:01.743Z,1.82
2022-11-27T18:51:28.271Z,1.68
2022-11-27T18:53:56.478Z,1.51
2022-11-27T18:56:28.541Z,1.68
2022-11-27T18:58:55.255Z,1.51
2022-11-27T19:01:26.315Z,1.55
2022-11-27T19:03:53.346Z,1.56
2022-11-27T19:06:20.928Z,1.46
2022-11-27T19:08:48.003Z,1.38
2022-11-27T19:11:16.175Z,1.55
2022-11-27T19:13:42.783Z,1.48
2022-11-27T19:16:14.202Z,1.35
2022-11-27T19:18:40.919Z,1.37
2022-11-27T19:21:08.529Z,1.33
2022-11-27T19:23:39.146Z,1.35
2022-11-27T19:26:08.567Z,1.37
2022-11-27T19:28:35.195Z,1.46
2022-11-27T19:31:09.292Z,1.47
2022-11-27T19:33:38.799Z,1.35
2022-11-27T19:36:11.290Z,1.29
2022-11-27T19:38:38.502Z,1.22
2022-11-27T19:41:13.168Z,1.20
2022-11-27T19:43:40.114Z,1.39
2022-11-27T19:46:33.129Z,1.32
2022-11-27T19:49:01.282Z,1.38
2022-11-27T19:51:28.688Z,1.27
2022-11-27T19:53:55.701Z,1.30
2022-11-27T19:56:23.736Z,1.36
2022-11-27T19:58:50.307Z,1.42
2022-11-27T20:01:19.144Z,1.43
2022-11-27T20:03:47.431Z,1.35
2022-11-27T20:06:15.434Z,1.35
2022-11-27T20:08:43.104Z,1.25
2022-11-27T20:11:11.432Z,1.45
2022-11-27T20:13:38.448Z,1.47
2022-11-27T20:16:08.916Z,1.73
2022-11-27T20:18:35.887Z,1.56
2022-11-27T20:21:04.368Z,1.44
2022-11-27T20:23:30.844Z,1.60
2022-11-27T20:25:57.282Z,1.45
2022-11-27T20:28:24.344Z,1.33
2022-11-27T20:30:58.226Z,1.25
2022-11-27T20:33:24.801Z,1.25
2022-11-27T20:35:51.379Z,1.24
2022-11-27T20:38:18.876Z,1.38
2022-11-27T20:40:45.402Z,1.56
2022-11-27T20:43:11.908Z,1.57
2022-11-27T20:45:39.488Z,2.48
2022-11-27T20:48:06.251Z,1.93
2022-11-27T20:50:32.970Z,1.56
2022-11-27T20:52:59.816Z,1.31
2022-11-27T20:55:26.844Z,1.43
2022-11-27T20:57:55.088Z,1.51
2022-11-27T21:00:22.449Z,2.04
2022-11-27T21:02:48.950Z,1.67
2022-11-27T21:05:15.468Z,1.63
2022-11-27T21:07:42.866Z,1.61
2022-11-27T21:10:10.945Z,1.54
2022-11-27T21:12:37.772Z,1.59
2022-11-27T21:15:04.843Z,1.56
2022-11-27T21:17:31.524Z,1.58
2022-11-27T21:19:58.173Z,1.60
2022-11-27T21:22:24.767Z,1.67
2022-11-27T21:24:51.400Z,1.73
2022-11-27T21:27:17.975Z,1.73
2022-11-27T21:29:44.654Z,1.86
2022-11-27T21:32:11.223Z,1.99
2022-11-27T21:34:38.959Z,1.99
2022-11-27T21:37:05.886Z,1.97
2022-11-27T21:39:33.827Z,2.12
2022-11-27T21:42:00.264Z,2.11
2022-11-27T21:44:26.796Z,2.06
2022-11-27T21:46:53.301Z,2.21
2022-11-27T21:49:20.422Z,2.34
2022-11-27T21:51:50.089Z,2.45
2022-11-27T21:54:18.757Z,2.46
2022-11-27T21:56:45.246Z,2.55
2022-11-27T21:59:13.970Z,2.63
2022-11-27T22:01:40.861Z,3.05
2022-11-27T22:04:07.421Z,2.99
2022-11-27T22:06:38.004Z,2.74
2022-11-27T22:09:05.063Z,2.65
2022-11-27T22:11:31.672Z,2.86
2022-11-27T22:13:59.981Z,2.83
2022-11-27T22:16:28.043Z,2.72
2022-11-27T22:18:55.561Z,2.78
2022-11-27T22:21:22.498Z,2.79
2022-11-27T22:23:49.348Z,2.68
2022-11-27T22:26:18.473Z,2.79
2022-11-27T22:28:47.222Z,2.91
2022-11-27T22:31:21.268Z,2.71
2022-11-27T22:33:48.657Z,2.88
2022-11-27T22:36:23.328Z,2.66
2022-11-27T22:38:51.548Z,2.61
2022-11-27T22:41:18.962Z,2.68
2022-11-27T22:43:46.003Z,2.69
2022-11-27T22:46:14.038Z,2.76
2022-11-27T22:48:40.632Z,2.74
2022-11-27T22:51:08.081Z,2.69
2022-11-27T22:53:34.999Z,3.02
2022-11-27T22:56:03.505Z,2.91
2022-11-27T22:58:31.108Z,2.85
2022-11-27T23:00:57.679Z,2.82
2022-11-27T23:03:24.405Z,2.74
2022-11-27T23:05:51.016Z,2.71
2022-11-27T23:08:18.927Z,2.71
2022-11-27T23:10:49.234Z,2.95
2022-11-27T23:13:15.854Z,3.08
2022-11-27T23:15:42.904Z,2.92
2022-11-27T23:18:09.673Z,2.81
2022-11-27T23:20:39.756Z,3.11
2022-11-27T23:23:06.523Z,2.99
2022-11-27T23:25:32.960Z,2.72
2022-11-27T23:27:59.408Z,2.47
2022-11-27T23:30:25.925Z,2.32
2022-11-27T23:32:52.435Z,2.16
2022-11-27T23:35:18.876Z,2.25
2022-11-27T23:37:52.604Z,2.25
2022-11-27T23:40:19.381Z,2.64
2022-11-27T23:42:45.933Z,2.18
2022-11-27T23:45:12.429Z,2.05
2022-11-27T23:47:39.205Z,2.27
2022-11-27T23:50:06.129Z,2.02
2022-11-27T23:52:32.690Z,1.95
2022-11-27T23:54:59.156Z,1.92
2022-11-27T23:57:25.617Z,1.85
2022-11-27T23:59:52.112Z,1.70
